Time;durP1;ratioP1;P1;durP2;ratioP2;P2;SDS_P1;SDS_P2;PMS_P1;PMS_P2;Temp;Humidity;BMP_temperature;BMP_pressure;BME280_temperature;BME280_humidity;BME280_pressure;Samples;Min_cycle;Max_cycle;Signal;HPM_P1;HPM_P2
2022/12/16 00:02:07;;;;;;;101.85;56.63;;;;;;;15.12;61.13;98700.84;4956596;28;20058;-56
2022/12/16 00:04:43;;;;;;;103.53;57.88;;;;;;;15.00;61.07;98699.03;4965595;28;20066;-54
2022/12/16 00:07:37;;;;;;;103.15;54.92;;;;;;;15.13;60.04;98697.88;4963027;28;20080;-54
2022/12/16 00:10:13;;;;;;;102.25;56.30;;;;;;;15.05;60.52;98704.50;4963534;28;20057;-54
2022/12/16 00:13:02;;;;;;;98.95;55.42;;;;;;;15.08;60.79;98701.31;4966353;28;20166;-55
2022/12/16 00:15:50;;;;;;;97.57;57.05;;;;;;;14.95;60.73;98700.81;4946688;29;20047;-52
2022/12/16 00:18:46;;;;;;;89.63;55.88;;;;;;;14.87;61.47;98712.84;4945917;28;20138;-57
2022/12/16 00:21:27;;;;;;;99.90;56.83;;;;;;;14.98;60.86;98724.63;4946943;28;20129;-54
2022/12/16 00:24:23;;;;;;;102.57;56.40;;;;;;;15.15;60.60;98716.56;4964562;28;20070;-53
2022/12/16 00:27:12;;;;;;;92.70;54.97;;;;;;;15.11;59.75;98710.81;4965779;28;20105;-54
2022/12/16 00:30:01;;;;;;;90.10;55.42;;;;;;;15.14;59.60;98710.34;4949194;28;20456;-53
2022/12/16 00:32:43;;;;;;;96.13;56.85;;;;;;;15.12;59.09;98708.97;4957324;28;20776;-54
2022/12/16 00:35:35;;;;;;;104.40;56.70;;;;;;;15.08;59.67;98717.53;4966111;28;20431;-52
2022/12/16 00:38:26;;;;;;;97.25;56.78;;;;;;;14.96;60.05;98716.78;4965700;28;20861;-58
2022/12/16 00:41:14;;;;;;;97.07;56.08;;;;;;;14.79;60.00;98713.22;4958917;28;20053;-55
2022/12/16 00:43:57;;;;;;;100.47;57.13;;;;;;;14.75;59.79;98712.91;4965879;28;20682;-51
2022/12/16 00:46:46;;;;;;;95.55;56.33;;;;;;;14.57;60.68;98719.28;4965531;28;20176;-53
2022/12/16 00:49:41;;;;;;;102.50;58.00;;;;;;;14.48;59.79;98726.94;4966559;28;20047;-54
2022/12/16 00:52:17;;;;;;;101.47;56.97;;;;;;;14.14;60.99;98727.78;4964642;28;20125;-54
2022/12/16 00:55:06;;;;;;;101.30;56.90;;;;;;;14.26;61.73;98734.00;4965666;28;20058;-55
2022/12/16 00:57:48;;;;;;;103.45;58.15;;;;;;;14.21;61.70;98740.09;4965507;28;20051;-54
2022/12/16 01:00:37;;;;;;;111.97;63.00;;;;;;;14.33;60.91;98737.41;4961601;28;20078;-54
2022/12/16 01:03:19;;;;;;;112.47;61.25;;;;;;;14.22;61.75;98746.34;4963184;28;20043;-55
2022/12/16 01:06:14;;;;;;;117.57;64.63;;;;;;;14.19;61.04;98742.22;4958415;28;20138;-57
2022/12/16 01:08:56;;;;;;;119.25;65.63;;;;;;;14.16;63.09;98747.28;4965178;28;20050;-53
2022/12/16 01:11:45;;;;;;;106.82;62.35;;;;;;;14.01;62.21;98755.88;4961985;28;20158;-53
2022/12/16 01:14:27;;;;;;;108.38;64.22;;;;;;;13.99;62.26;98758.78;4946475;28;20042;-56
2022/12/16 01:17:16;;;;;;;122.68;66.25;;;;;;;13.84;62.36;98766.53;4948125;28;20098;-54
2022/12/16 01:20:08;;;;;;;123.55;69.07;;;;;;;14.03;62.83;98768.06;4963948;28;20043;-54
2022/12/16 01:22:57;;;;;;;117.75;66.22;;;;;;;13.81;63.56;98773.19;4964962;28;20070;-52
2022/12/16 01:25:46;;;;;;;125.53;65.72;;;;;;;13.80;64.18;98776.97;4965677;28;20121;-52
2022/12/16 01:28:35;;;;;;;126.72;66.55;;;;;;;13.80;64.05;98776.97;4965489;28;20487;-54
2022/12/16 01:31:17;;;;;;;116.80;65.50;;;;;;;13.78;63.58;98779.06;4969086;28;20513;-54
2022/12/16 01:34:07;;;;;;;123.68;66.70;;;;;;;13.86;64.43;98786.81;4968935;28;20070;-54
2022/12/16 01:36:50;;;;;;;120.07;66.53;;;;;;;13.70;64.39;98777.53;4969154;28;20740;-54
2022/12/16 01:39:45;;;;;;;126.50;66.78;;;;;;;13.74;63.62;98782.47;4968885;28;20066;-56
2022/12/16 01:42:22;;;;;;;116.38;69.40;;;;;;;13.55;64.27;98789.81;4968722;28;20054;-52
2022/12/16 01:45:22;;;;;;;111.72;65.75;;;;;;;13.47;65.60;98805.28;4968159;28;20059;-54
2022/12/16 01:48:12;;;;;;;121.28;72.20;;;;;;;13.47;65.25;98804.44;4968707;28;20058;-52
2022/12/16 01:51:13;;;;;;;129.38;70.05;;;;;;;13.34;65.19;98799.25;4968501;28;20061;-54
2022/12/16 01:53:53;;;;;;;130.77;72.30;;;;;;;13.13;65.78;98809.47;4951588;28;20058;-53
2022/12/16 01:56:45;;;;;;;122.32;71.53;;;;;;;13.18;66.74;98806.09;4968060;28;20065;-51
2022/12/16 01:59:38;;;;;;;131.18;77.40;;;;;;;13.40;66.15;98809.94;4957082;28;20051;-53
2022/12/16 02:02:27;;;;;;;127.82;75.35;;;;;;;13.47;66.20;98808.00;4967718;28;20142;-51
2022/12/16 02:05:21;;;;;;;138.05;78.55;;;;;;;13.38;66.06;98816.63;4967980;28;20058;-57
2022/12/16 02:08:13;;;;;;;144.35;83.22;;;;;;;13.31;68.54;98816.72;4967764;28;20411;-53
2022/12/16 02:11:13;;;;;;;140.10;80.18;;;;;;;13.27;69.58;98828.97;4966869;28;20062;-53
2022/12/16 02:14:36;;;;;;;140.27;83.22;;;;;;;13.49;67.94;98832.03;4961754;28;20054;-51
2022/12/16 02:17:36;;;;;;;145.25;81.15;;;;;;;13.59;67.23;98837.66;4948453;29;20511;-55
2022/12/16 02:20:43;;;;;;;158.52;83.97;;;;;;;13.51;68.61;98841.53;4965472;28;20070;-55
2022/12/16 02:23:54;;;;;;;150.15;82.18;;;;;;;13.69;69.13;98839.81;4965308;28;20051;-54
2022/12/16 02:26:52;;;;;;;147.27;82.63;;;;;;;13.65;68.84;98838.63;4967287;28;20058;-54
2022/12/16 02:30:02;;;;;;;137.50;84.22;;;;;;;13.62;68.50;98839.06;4967455;28;20137;-53
2022/12/16 02:33:18;;;;;;;159.20;84.20;;;;;;;13.81;69.09;98837.94;4967448;28;20079;-53
2022/12/16 02:36:13;;;;;;;143.15;83.10;;;;;;;13.94;69.15;98836.09;4967280;28;20066;-52
2022/12/16 02:39:32;;;;;;;159.43;87.22;;;;;;;14.02;68.12;98828.47;4967582;28;20082;-55
2022/12/16 02:42:50;;;;;;;157.48;83.43;;;;;;;14.08;67.77;98827.56;4952938;28;20695;-55
2022/12/16 02:45:36;;;;;;;165.00;83.80;;;;;;;13.85;68.47;98831.06;4966932;28;20046;-54
2022/12/16 02:48:25;;;;;;;168.05;86.88;;;;;;;14.08;67.65;98837.50;4966068;28;20109;-53
2022/12/16 02:51:14;;;;;;;163.63;85.65;;;;;;;14.23;68.12;98839.75;4957512;28;20513;-51
2022/12/16 02:54:07;;;;;;;157.40;85.72;;;;;;;14.33;68.41;98834.59;4965595;28;20074;-51
2022/12/16 02:57:03;;;;;;;155.48;85.60;;;;;;;14.43;68.33;98839.41;4966921;28;20070;-53
2022/12/16 03:00:04;;;;;;;151.40;84.95;;;;;;;14.55;68.07;98837.50;4966693;28;20697;-52
2022/12/16 03:03:19;;;;;;;151.07;81.63;;;;;;;14.62;67.03;98843.63;4960609;28;20549;-51
2022/12/16 03:06:13;;;;;;;142.77;78.75;;;;;;;14.92;63.85;98841.81;4963589;28;20105;-56
2022/12/16 03:09:05;;;;;;;137.32;78.03;;;;;;;15.27;61.31;98849.81;4962884;28;20051;-53
2022/12/16 03:11:48;;;;;;;143.18;78.38;;;;;;;15.48;61.62;98853.72;4962763;28;20384;-54
2022/12/16 03:14:40;;;;;;;135.95;77.93;;;;;;;15.52;61.99;98856.75;4966244;28;20497;-56
2022/12/16 03:17:24;;;;;;;145.35;79.72;;;;;;;15.52;64.05;98864.88;4949352;28;20141;-53
2022/12/16 03:20:23;;;;;;;152.75;79.32;;;;;;;15.64;64.05;98876.44;4964601;28;20054;-55
2022/12/16 03:23:11;;;;;;;133.63;76.85;;;;;;;15.91;60.94;98884.78;4963462;28;20526;-54
2022/12/16 03:26:07;;;;;;;131.85;72.90;;;;;;;16.38;59.37;98886.38;4965862;28;20047;-53
2022/12/16 03:29:37;;;;;;;128.27;74.70;;;;;;;16.69;62.12;98897.66;4964584;28;20054;-55
2022/12/16 03:32:55;;;;;;;131.13;73.22;;;;;;;17.12;60.65;98901.50;4951544;28;20117;-55
2022/12/16 03:35:49;;;;;;;121.72;70.68;;;;;;;17.86;56.37;98900.19;4966090;28;20047;-54
2022/12/16 03:38:41;;;;;;;134.65;69.07;;;;;;;18.70;52.75;98909.53;4958433;28;20113;-57
2022/12/16 03:41:38;;;;;;;121.10;69.43;;;;;;;19.07;51.53;98917.66;4966150;28;20130;-55
2022/12/16 03:44:14;;;;;;;126.15;66.13;;;;;;;19.44;50.21;98919.44;4960343;28;20083;-55
2022/12/16 03:47:10;;;;;;;102.05;61.22;;;;;;;19.88;49.47;98918.22;4963883;28;20155;-53
2022/12/16 03:49:49;;;;;;;104.10;57.47;;;;;;;20.03;48.07;98920.16;4966082;28;20366;-55
2022/12/16 03:52:44;;;;;;;110.53;55.97;;;;;;;20.62;46.44;98927.00;4963267;28;20141;-55
2022/12/16 03:55:40;;;;;;;104.75;51.67;;;;;;;21.16;45.12;98920.84;4965823;28;20569;-52
2022/12/16 03:58:16;;;;;;;94.45;51.33;;;;;;;21.48;43.48;98916.94;4947111;29;20558;-52
2022/12/16 04:01:09;;;;;;;93.03;49.85;;;;;;;22.04;42.48;98924.75;4952128;28;20063;-54
2022/12/16 04:03:58;;;;;;;91.53;49.63;;;;;;;22.15;44.50;98920.06;4966363;28;20074;-54
2022/12/16 04:06:40;;;;;;;74.55;45.40;;;;;;;22.38;41.49;98915.78;4966063;28;20790;-55
2022/12/16 04:09:29;;;;;;;69.95;42.60;;;;;;;22.52;43.93;98937.00;4963946;28;20047;-50
2022/12/16 04:24:35;;;;;;;79.03;40.72;;;;;;;23.26;41.38;98929.41;4948196;28;20774;-53
2022/12/16 04:27:24;;;;;;;77.70;44.80;;;;;;;23.05;39.91;98937.06;4965601;28;20106;-58
2022/12/16 04:30:19;;;;;;;98.15;51.08;;;;;;;23.01;40.37;98936.78;4965759;28;20055;-56
